Time;durP1;ratioP1;P1;durP2;ratioP2;P2;SDS_P1;SDS_P2;PMS_P1;PMS_P2;Temp;Humidity;BMP_temperature;BMP_pressure;BME280_temperature;BME280_humidity;BME280_pressure;Samples;Min_cycle;Max_cycle;Signal;HPM_P1;HPM_P2
2024/01/14 00:00:09;;;;;;;79.93;36.17;;;2.10;93.10;;;;;;5034440;28;20016;-80
2024/01/14 00:02:38;;;;;;;68.85;36.03;;;2.10;93.10;;;;;;5034322;28;20075;-79
2024/01/14 00:05:08;;;;;;;78.07;37.08;;;2.00;93.10;;;;;;5033729;28;20039;-80
2024/01/14 00:07:54;;;;;;;72.22;36.33;;;2.00;93.30;;;;;;5027020;28;20033;-80
2024/01/14 00:10:19;;;;;;;61.67;33.88;;;2.10;93.20;;;;;;5028483;28;20079;-80
2024/01/14 00:12:45;;;;;;;72.82;37.15;;;2.10;93.20;;;;;;5032161;28;20045;-80
2024/01/14 00:15:11;;;;;;;67.80;34.75;;;2.00;93.00;;;;;;5036516;28;20025;-80
2024/01/14 00:17:37;;;;;;;67.88;34.90;;;2.00;93.10;;;;;;5030588;28;20412;-80
2024/01/14 00:20:04;;;;;;;66.50;35.80;;;2.00;93.10;;;;;;5032904;28;20021;-80
2024/01/14 00:22:30;;;;;;;73.25;37.17;;;2.00;93.10;;;;;;5029882;28;20060;-79
2024/01/14 00:24:55;;;;;;;65.53;34.40;;;2.00;93.10;;;;;;5026877;28;20033;-79
2024/01/14 00:27:21;;;;;;;70.45;37.20;;;2.10;93.20;;;;;;5032235;28;20112;-79
2024/01/14 00:29:47;;;;;;;65.60;33.50;;;2.00;93.10;;;;;;5034495;28;20024;-80
2024/01/14 00:32:12;;;;;;;72.97;35.67;;;2.10;93.20;;;;;;5024270;28;20018;-78
2024/01/14 00:34:41;;;;;;;70.13;35.22;;;2.10;93.20;;;;;;5024794;28;20123;-79
2024/01/14 00:37:06;;;;;;;67.70;35.53;;;2.10;93.20;;;;;;5033231;28;20025;-79
2024/01/14 00:39:37;;;;;;;68.38;34.70;;;2.10;93.10;;;;;;5023529;28;20374;-79
2024/01/14 00:42:03;;;;;;;76.82;36.65;;;2.10;93.00;;;;;;5028106;28;20021;-79
2024/01/14 00:44:29;;;;;;;72.32;35.53;;;2.10;93.00;;;;;;5025514;28;20033;-81
2024/01/14 00:46:54;;;;;;;65.45;34.30;;;2.10;93.10;;;;;;5037559;28;20657;-79
2024/01/14 00:49:20;;;;;;;63.30;33.90;;;2.10;93.10;;;;;;5036159;28;20021;-80
2024/01/14 00:51:46;;;;;;;82.82;42.88;;;2.10;93.10;;;;;;5034555;28;20029;-80
2024/01/14 00:54:11;;;;;;;67.32;37.60;;;2.10;93.10;;;;;;5034997;28;20039;-79
2024/01/14 00:56:37;;;;;;;77.60;39.20;;;2.10;93.20;;;;;;5026556;28;20080;-79
2024/01/14 00:59:02;;;;;;;78.28;39.88;;;2.10;93.20;;;;;;5028344;28;20041;-80
2024/01/14 01:01:29;;;;;;;69.72;36.17;;;2.10;93.20;;;;;;5034169;28;20056;-79
2024/01/14 01:03:55;;;;;;;76.03;41.40;;;2.00;93.20;;;;;;5031225;28;20041;-79
2024/01/14 01:06:21;;;;;;;76.38;41.50;;;2.10;93.40;;;;;;5032595;28;20019;-79
2024/01/14 01:08:47;;;;;;;86.90;45.90;;;2.10;93.50;;;;;;5027098;28;20698;-79
2024/01/14 01:11:16;;;;;;;82.88;42.78;;;2.10;93.50;;;;;;5034549;28;20041;-80
2024/01/14 01:13:41;;;;;;;78.72;41.25;;;2.00;93.40;;;;;;5026075;28;20029;-79
2024/01/14 01:16:07;;;;;;;80.65;41.80;;;2.00;93.50;;;;;;5027744;28;20466;-79
2024/01/14 01:18:32;;;;;;;76.50;39.67;;;2.00;93.50;;;;;;5027977;28;20374;-80
2024/01/14 01:20:58;;;;;;;67.00;36.03;;;2.00;93.40;;;;;;5028758;28;20082;-79
2024/01/14 01:23:24;;;;;;;69.50;37.40;;;1.90;93.30;;;;;;5030660;28;20025;-80
2024/01/14 01:25:49;;;;;;;72.70;37.38;;;1.90;93.40;;;;;;5035661;28;20063;-79
2024/01/14 01:28:15;;;;;;;68.60;35.63;;;1.90;93.40;;;;;;5028813;28;20033;-80
2024/01/14 01:30:41;;;;;;;69.38;37.08;;;1.90;93.40;;;;;;5032799;28;20021;-79
2024/01/14 01:33:06;;;;;;;62.92;33.75;;;1.80;93.40;;;;;;5032568;28;20061;-79
2024/01/14 01:35:32;;;;;;;70.20;35.50;;;1.80;93.40;;;;;;5031934;28;20365;-80
2024/01/14 01:37:58;;;;;;;68.45;35.72;;;1.80;93.50;;;;;;5036037;28;20053;-80
2024/01/14 01:40:23;;;;;;;73.43;37.00;;;1.70;93.60;;;;;;5037266;28;20052;-79
2024/01/14 01:42:49;;;;;;;71.28;35.88;;;1.70;93.70;;;;;;5025039;28;20441;-79
2024/01/14 01:45:15;;;;;;;65.45;34.50;;;1.70;93.70;;;;;;5026351;28;20120;-78
2024/01/14 01:47:42;;;;;;;70.40;35.97;;;1.70;93.70;;;;;;5035298;28;20124;-80
2024/01/14 01:50:09;;;;;;;68.55;35.05;;;1.70;93.70;;;;;;5031533;28;20093;-79
2024/01/14 01:52:36;;;;;;;70.07;34.30;;;1.70;93.80;;;;;;5033495;28;20124;-80
2024/01/14 01:55:04;;;;;;;68.70;33.70;;;1.80;93.80;;;;;;5035474;28;20025;-80
2024/01/14 01:57:30;;;;;;;71.60;35.83;;;1.80;93.80;;;;;;5033640;28;20373;-79
2024/01/14 01:59:55;;;;;;;65.78;34.38;;;1.80;93.80;;;;;;5029987;28;20039;-80
2024/01/14 02:02:22;;;;;;;72.07;33.95;;;1.80;93.80;;;;;;5032450;28;20021;-79
2024/01/14 02:04:48;;;;;;;72.68;35.45;;;1.80;93.90;;;;;;5035726;28;20484;-80
2024/01/14 02:07:15;;;;;;;70.22;35.30;;;1.90;93.90;;;;;;5029396;28;20061;-79
2024/01/14 02:09:41;;;;;;;70.28;34.22;;;1.80;93.90;;;;;;5029968;28;20022;-81
2024/01/14 02:12:07;;;;;;;77.03;35.83;;;1.90;93.90;;;;;;5032023;28;20031;-80
2024/01/14 02:14:33;;;;;;;70.78;35.88;;;1.90;93.90;;;;;;5032497;28;20080;-80
2024/01/14 02:16:59;;;;;;;70.40;35.05;;;1.90;93.90;;;;;;5037701;28;20049;-81
2024/01/14 02:19:24;;;;;;;74.68;36.30;;;1.90;93.90;;;;;;5032781;28;20719;-80
2024/01/14 02:21:58;;;;;;;72.53;36.28;;;1.90;93.80;;;;;;5032472;28;20033;-80
2024/01/14 02:24:28;;;;;;;67.70;35.13;;;1.90;93.80;;;;;;5031489;28;20159;-80
2024/01/14 02:26:54;;;;;;;74.57;35.15;;;1.90;93.90;;;;;;5032166;28;20029;-80
2024/01/14 02:29:20;;;;;;;71.38;34.63;;;1.90;93.80;;;;;;5034280;28;20032;-80
2024/01/14 02:31:46;;;;;;;68.57;34.78;;;2.00;93.90;;;;;;5035611;28;20023;-80
2024/01/14 02:34:12;;;;;;;70.88;35.10;;;2.00;93.90;;;;;;5026524;28;20298;-80
2024/01/14 02:36:38;;;;;;;68.80;36.83;;;2.10;93.90;;;;;;5028933;28;20031;-80
2024/01/14 02:39:07;;;;;;;67.00;36.65;;;2.10;93.80;;;;;;5032322;28;20249;-80
2024/01/14 02:41:33;;;;;;;72.00;35.58;;;2.10;93.80;;;;;;5026156;28;20080;-80
2024/01/14 02:43:59;;;;;;;78.55;36.25;;;2.10;93.80;;;;;;5027895;28;20128;-81
2024/01/14 02:46:24;;;;;;;72.18;34.35;;;2.10;93.80;;;;;;5028087;28;20342;-79
2024/01/14 02:48:50;;;;;;;73.43;36.95;;;2.10;93.80;;;;;;5031398;28;20030;-79
2024/01/14 02:51:16;;;;;;;71.07;35.72;;;2.10;93.70;;;;;;5043164;28;20033;-80
2024/01/14 02:53:42;;;;;;;70.97;34.53;;;2.10;93.80;;;;;;5032112;28;20535;-79
2024/01/14 02:56:10;;;;;;;67.55;34.08;;;2.10;93.80;;;;;;5031239;28;20079;-80
2024/01/14 02:58:36;;;;;;;67.47;34.47;;;2.10;93.80;;;;;;5036968;28;20134;-81
2024/01/14 03:01:01;;;;;;;72.18;36.40;;;2.10;93.80;;;;;;5031280;28;20021;-80
2024/01/14 03:03:27;;;;;;;68.18;34.60;;;2.10;93.80;;;;;;5033527;28;20545;-81
2024/01/14 03:05:52;;;;;;;72.25;34.92;;;2.10;93.80;;;;;;5029658;28;20037;-80
2024/01/14 03:08:18;;;;;;;70.80;36.67;;;2.10;93.90;;;;;;5034451;28;20029;-80
2024/01/14 03:10:44;;;;;;;74.25;35.10;;;2.10;93.90;;;;;;5032180;28;20093;-79
2024/01/14 03:13:10;;;;;;;68.40;34.58;;;2.10;93.90;;;;;;5031550;28;20036;-80
2024/01/14 03:15:35;;;;;;;69.05;34.88;;;2.10;93.80;;;;;;5030480;28;20037;-79
2024/01/14 03:18:01;;;;;;;60.50;32.63;;;2.10;93.80;;;;;;5029760;28;20025;-79
2024/01/14 03:20:27;;;;;;;71.45;36.05;;;2.10;93.90;;;;;;5033649;28;20021;-79
2024/01/14 03:22:53;;;;;;;72.57;34.70;;;2.00;93.90;;;;;;5034077;28;20108;-79
2024/01/14 03:25:18;;;;;;;69.53;35.28;;;2.00;93.90;;;;;;5029200;28;20120;-79
2024/01/14 03:27:44;;;;;;;65.60;35.47;;;2.10;93.90;;;;;;5032196;28;20478;-79
2024/01/14 03:30:10;;;;;;;72.25;34.47;;;2.10;94.00;;;;;;5032978;28;20133;-79
2024/01/14 03:32:36;;;;;;;73.97;36.30;;;2.00;94.00;;;;;;5029552;28;20029;-80
2024/01/14 03:35:01;;;;;;;71.32;36.42;;;2.00;94.00;;;;;;5026093;28;20365;-79
2024/01/14 03:37:27;;;;;;;68.05;34.80;;;2.00;94.10;;;;;;5028934;28;20048;-79
2024/01/14 03:39:53;;;;;;;65.28;33.58;;;2.00;94.10;;;;;;5028604;28;20122;-79
2024/01/14 03:42:19;;;;;;;64.50;34.78;;;2.00;94.10;;;;;;5030499;28;20017;-79
2024/01/14 03:44:44;;;;;;;68.13;32.53;;;2.00;94.10;;;;;;5029952;28;20505;-79
2024/01/14 03:47:10;;;;;;;69.93;35.38;;;2.00;94.10;;;;;;5036702;28;20025;-80
2024/01/14 03:49:35;;;;;;;66.90;34.58;;;2.10;94.20;;;;;;5031186;28;20032;-80
2024/01/14 03:52:01;;;;;;;68.75;36.72;;;2.00;94.00;;;;;;5033506;28;20031;-79
2024/01/14 03:54:27;;;;;;;66.45;34.38;;;2.00;94.00;;;;;;5032565;28;20060;-79
2024/01/14 03:56:52;;;;;;;67.43;35.25;;;2.00;94.00;;;;;;5034970;28;20021;-80
2024/01/14 03:59:18;;;;;;;63.08;31.75;;;2.00;93.90;;;;;;5027011;28;20037;-80
2024/01/14 04:01:43;;;;;;;65.35;34.20;;;2.00;93.90;;;;;;5029978;28;20039;-80
2024/01/14 04:04:09;;;;;;;68.60;34.78;;;1.90;94.00;;;;;;5025537;28;20470;-79
2024/01/14 04:06:35;;;;;;;62.72;33.75;;;1.90;94.00;;;;;;5032711;28;20047;-80
2024/01/14 04:09:01;;;;;;;60.30;32.42;;;1.90;94.00;;;;;;5031173;28;20087;-79
2024/01/14 04:11:27;;;;;;;65.70;33.55;;;1.90;94.00;;;;;;5028172;28;20033;-79
2024/01/14 04:13:53;;;;;;;69.15;33.13;;;1.90;94.10;;;;;;5032211;28;20033;-79
2024/01/14 04:16:19;;;;;;;62.97;31.63;;;2.00;94.20;;;;;;5029070;28;20114;-79
2024/01/14 04:18:45;;;;;;;63.65;34.05;;;2.00;94.10;;;;;;5036876;28;20361;-80
2024/01/14 04:21:24;;;;;;;61.33;33.97;;;2.00;94.00;;;;;;5025408;28;20027;-79
2024/01/14 04:23:50;;;;;;;62.45;31.73;;;1.90;94.00;;;;;;5025164;28;20125;-79
2024/01/14 04:26:23;;;;;;;59.90;33.22;;;1.90;94.10;;;;;;5030709;28;20401;-79
2024/01/14 04:28:52;;;;;;;65.95;33.90;;;1.90;94.10;;;;;;5029469;28;20636;-79
2024/01/14 04:31:18;;;;;;;67.05;32.63;;;1.90;94.10;;;;;;5019650;28;20029;-79
2024/01/14 04:33:45;;;;;;;62.17;31.73;;;1.90;94.20;;;;;;5036977;28;20687;-79
2024/01/14 04:36:10;;;;;;;61.63;31.45;;;1.80;94.10;;;;;;5033113;28;20086;-78
2024/01/14 04:38:36;;;;;;;61.92;31.92;;;1.90;94.20;;;;;;5032200;28;20045;-79
2024/01/14 04:41:02;;;;;;;62.85;32.33;;;1.90;94.30;;;;;;5030717;28;20031;-79
2024/01/14 04:43:28;;;;;;;67.90;34.28;;;1.90;94.20;;;;;;5022521;28;20472;-79
2024/01/14 04:45:54;;;;;;;62.65;33.45;;;1.90;94.20;;;;;;5028313;28;20662;-78
2024/01/14 04:48:20;;;;;;;61.33;33.63;;;1.80;94.20;;;;;;5028095;28;20029;-80
2024/01/14 04:50:45;;;;;;;63.95;34.03;;;1.90;94.30;;;;;;5028038;28;20079;-78
2024/01/14 04:53:11;;;;;;;65.65;34.00;;;1.80;94.40;;;;;;5031282;28;20083;-78
2024/01/14 04:55:37;;;;;;;66.80;33.15;;;1.90;94.40;;;;;;5026685;28;20021;-78
2024/01/14 04:58:03;;;;;;;68.50;33.63;;;1.90;94.40;;;;;;5025779;28;20034;-79
2024/01/14 05:00:29;;;;;;;64.45;34.78;;;1.80;94.30;;;;;;5032097;28;20018;-79
2024/01/14 05:02:54;;;;;;;67.72;33.80;;;1.80;94.30;;;;;;5024569;28;20048;-79
2024/01/14 05:05:20;;;;;;;65.10;33.92;;;1.90;94.30;;;;;;5034926;28;20024;-78
2024/01/14 05:07:46;;;;;;;65.25;34.15;;;1.90;94.30;;;;;;5024504;28;20542;-78
2024/01/14 05:10:11;;;;;;;65.15;32.97;;;1.90;94.40;;;;;;5032941;28;20020;-81
2024/01/14 05:12:37;;;;;;;66.50;34.33;;;1.90;94.30;;;;;;5032489;28;20056;-80
2024/01/14 05:15:03;;;;;;;66.80;33.70;;;1.80;94.20;;;;;;5037067;28;20398;-81
2024/01/14 05:17:29;;;;;;;67.30;34.95;;;1.80;94.30;;;;;;5033756;28;20438;-80
2024/01/14 05:19:55;;;;;;;72.80;35.03;;;1.80;94.40;;;;;;5035063;28;20078;-80
2024/01/14 05:22:20;;;;;;;70.80;34.00;;;1.80;94.40;;;;;;5035574;28;20053;-80
2024/01/14 05:24:46;;;;;;;68.65;34.03;;;1.80;94.40;;;;;;5029546;28;20485;-80
2024/01/14 05:27:12;;;;;;;64.28;33.67;;;1.80;94.40;;;;;;5038724;28;20216;-81
2024/01/14 05:29:42;;;;;;;68.45;36.00;;;1.70;94.40;;;;;;5029585;28;20049;-80
2024/01/14 05:32:15;;;;;;;61.47;32.45;;;1.70;94.40;;;;;;5026138;28;20030;-80
2024/01/14 05:34:41;;;;;;;63.25;34.58;;;1.70;94.40;;;;;;5030047;28;20069;-80
2024/01/14 05:37:07;;;;;;;64.80;34.30;;;1.70;94.40;;;;;;5027389;28;20026;-80
2024/01/14 05:39:34;;;;;;;65.22;34.10;;;1.60;94.40;;;;;;5034708;28;20043;-80
2024/01/14 05:41:59;;;;;;;68.93;35.08;;;1.60;94.40;;;;;;5037162;28;20029;-80
2024/01/14 05:44:25;;;;;;;63.90;34.17;;;1.70;94.40;;;;;;5032410;28;20623;-80
2024/01/14 05:46:54;;;;;;;62.55;33.58;;;1.60;94.30;;;;;;5033525;28;20433;-80
2024/01/14 05:49:20;;;;;;;63.35;33.85;;;1.60;94.30;;;;;;5029049;28;20687;-80
2024/01/14 05:51:46;;;;;;;63.22;32.13;;;1.60;94.30;;;;;;5032878;28;20040;-80
2024/01/14 05:54:12;;;;;;;67.15;34.35;;;1.60;94.40;;;;;;5038102;28;20060;-80
2024/01/14 05:56:38;;;;;;;69.93;33.67;;;1.60;94.30;;;;;;5037255;28;20112;-80
2024/01/14 05:59:03;;;;;;;66.35;32.65;;;1.60;94.40;;;;;;5028268;28;20425;-80
2024/01/14 06:01:29;;;;;;;65.57;32.75;;;1.70;94.40;;;;;;5034804;28;20028;-81
2024/01/14 06:03:56;;;;;;;66.57;33.67;;;1.70;94.40;;;;;;5029312;28;20041;-80
2024/01/14 06:06:22;;;;;;;66.97;33.53;;;1.70;94.40;;;;;;5031556;28;20060;-81
2024/01/14 06:08:47;;;;;;;63.50;32.97;;;1.70;94.40;;;;;;5032703;28;20526;-81
2024/01/14 06:11:13;;;;;;;67.45;32.80;;;1.70;94.40;;;;;;5032508;28;20445;-78
2024/01/14 06:13:41;;;;;;;64.20;32.95;;;1.60;94.30;;;;;;5034024;28;20104;-78
2024/01/14 06:16:08;;;;;;;73.72;34.63;;;1.70;94.40;;;;;;5039600;28;20249;-80
2024/01/14 06:18:33;;;;;;;65.90;33.92;;;1.70;94.40;;;;;;5030738;28;20040;-80
2024/01/14 06:21:00;;;;;;;64.93;33.67;;;1.70;94.30;;;;;;5028649;28;20326;-80
2024/01/14 06:23:27;;;;;;;59.70;31.30;;;1.60;94.30;;;;;;5024144;28;20052;-80
2024/01/14 06:25:53;;;;;;;66.43;33.20;;;1.60;94.40;;;;;;5030252;28;20022;-80
2024/01/14 06:28:19;;;;;;;62.65;31.17;;;1.60;94.30;;;;;;5033978;28;20103;-80
2024/01/14 06:30:44;;;;;;;58.22;30.25;;;1.60;94.30;;;;;;5037860;28;20392;-79
2024/01/14 06:33:10;;;;;;;68.13;33.83;;;1.60;94.30;;;;;;5029000;28;20136;-79
2024/01/14 06:35:36;;;;;;;69.15;32.05;;;1.60;94.30;;;;;;5032052;28;20021;-79
2024/01/14 06:38:02;;;;;;;59.83;30.85;;;1.60;94.20;;;;;;5032667;28;20052;-79
2024/01/14 06:40:28;;;;;;;60.67;31.65;;;1.60;94.30;;;;;;5036334;28;20520;-79
2024/01/14 06:42:53;;;;;;;58.20;32.10;;;1.50;94.40;;;;;;5027906;28;20041;-80
2024/01/14 06:45:19;;;;;;;64.75;30.88;;;1.50;94.40;;;;;;5031657;28;20040;-79
2024/01/14 06:47:45;;;;;;;68.22;33.10;;;1.50;94.40;;;;;;5030762;28;20132;-79
2024/01/14 06:50:11;;;;;;;58.08;29.00;;;1.50;94.40;;;;;;5029178;28;20021;-80
2024/01/14 06:52:40;;;;;;;62.65;32.28;;;1.60;94.40;;;;;;5026728;28;20026;-79
2024/01/14 06:55:06;;;;;;;64.22;31.85;;;1.60;94.40;;;;;;5034501;28;20029;-79
2024/01/14 06:57:32;;;;;;;57.45;31.23;;;1.60;94.30;;;;;;5032985;28;20056;-79
2024/01/14 07:00:04;;;;;;;62.95;31.73;;;1.60;94.30;;;;;;5032308;28;20417;-79
2024/01/14 07:02:30;;;;;;;61.63;32.35;;;1.60;94.30;;;;;;5028668;28;20544;-79
2024/01/14 07:04:56;;;;;;;61.63;30.73;;;1.50;94.30;;;;;;5027344;28;20022;-79
2024/01/14 07:07:22;;;;;;;59.08;31.50;;;1.50;94.40;;;;;;5031422;28;20420;-79
2024/01/14 07:09:48;;;;;;;60.42;30.55;;;1.60;94.40;;;;;;5027528;28;20064;-79
2024/01/14 07:12:14;;;;;;;59.85;29.73;;;1.60;94.30;;;;;;5036728;28;20051;-79
2024/01/14 07:14:39;;;;;;;64.03;31.50;;;1.60;94.20;;;;;;5032934;28;20021;-79
2024/01/14 07:17:05;;;;;;;57.13;30.63;;;1.60;94.20;;;;;;5032254;28;20037;-79
2024/01/14 07:19:31;;;;;;;61.40;30.67;;;1.60;94.20;;;;;;5025995;28;20737;-78
2024/01/14 07:21:56;;;;;;;56.50;29.50;;;1.60;94.20;;;;;;5033235;28;20402;-79
2024/01/14 07:24:22;;;;;;;59.97;31.20;;;1.60;94.10;;;;;;5029345;28;20125;-79
2024/01/14 07:26:48;;;;;;;60.78;31.85;;;1.60;94.00;;;;;;5032979;28;20102;-79
2024/01/14 07:29:13;;;;;;;63.22;31.52;;;1.60;94.00;;;;;;5030211;28;20060;-79
2024/01/14 07:31:39;;;;;;;61.00;31.73;;;1.60;94.00;;;;;;5037445;28;20347;-79
2024/01/14 07:34:05;;;;;;;62.08;31.63;;;1.60;94.00;;;;;;5033939;28;20045;-79
2024/01/14 07:36:32;;;;;;;66.07;32.60;;;1.60;94.00;;;;;;5033514;28;20447;-79
2024/01/14 07:38:59;;;;;;;65.55;33.63;;;1.60;94.00;;;;;;5026872;28;20405;-79
2024/01/14 07:41:25;;;;;;;65.40;34.38;;;1.60;93.90;;;;;;5031468;28;20036;-79
2024/01/14 07:43:50;;;;;;;66.40;34.45;;;1.60;94.00;;;;;;5030899;28;20034;-79
2024/01/14 07:46:16;;;;;;;62.65;33.67;;;1.60;94.00;;;;;;5029590;28;20521;-79
2024/01/14 07:48:42;;;;;;;64.00;32.53;;;1.60;93.90;;;;;;5029255;28;20094;-79
2024/01/14 07:51:08;;;;;;;62.17;31.65;;;1.60;93.90;;;;;;5033075;28;20395;-79
2024/01/14 07:53:34;;;;;;;63.03;32.10;;;1.60;94.00;;;;;;5026779;28;20030;-79
2024/01/14 07:56:01;;;;;;;67.32;32.45;;;1.60;94.00;;;;;;5024744;28;20461;-79
2024/01/14 07:58:26;;;;;;;66.45;34.50;;;1.60;94.10;;;;;;5033305;28;20065;-79
2024/01/14 08:00:53;;;;;;;63.75;31.50;;;1.60;94.10;;;;;;5030293;28;20409;-79
2024/01/14 08:03:18;;;;;;;65.35;33.08;;;1.60;94.20;;;;;;5026133;28;20026;-80
2024/01/14 08:05:44;;;;;;;61.33;31.70;;;1.60;94.20;;;;;;5031152;28;20029;-79
2024/01/14 08:08:10;;;;;;;63.60;31.83;;;1.60;94.00;;;;;;5024693;28;20101;-79
2024/01/14 08:10:36;;;;;;;65.40;32.83;;;1.60;94.10;;;;;;5053042;28;20017;-78
2024/01/14 08:13:02;;;;;;;62.90;32.42;;;1.60;94.20;;;;;;5036697;28;20112;-78
2024/01/14 08:15:28;;;;;;;63.63;32.15;;;1.50;94.20;;;;;;5031544;28;20021;-79
2024/01/14 08:17:54;;;;;;;63.83;31.05;;;1.60;94.30;;;;;;5028532;28;20424;-74
2024/01/14 08:20:19;;;;;;;66.28;32.47;;;1.60;94.40;;;;;;5031238;28;20036;-73
2024/01/14 08:22:45;;;;;;;64.85;31.25;;;1.60;94.40;;;;;;5029958;28;21335;-74
2024/01/14 08:25:11;;;;;;;67.93;34.70;;;1.70;94.50;;;;;;5028312;28;20093;-73
2024/01/14 08:27:40;;;;;;;71.45;32.88;;;1.70;94.40;;;;;;5033023;28;20365;-72
2024/01/14 08:30:06;;;;;;;67.88;35.53;;;1.70;94.50;;;;;;5030480;28;20045;-73
2024/01/14 08:32:32;;;;;;;63.20;32.75;;;1.70;94.40;;;;;;5038545;28;20786;-72
2024/01/14 08:34:58;;;;;;;70.00;35.60;;;1.70;94.40;;;;;;5028964;28;20033;-73
2024/01/14 08:37:27;;;;;;;69.88;35.70;;;1.60;94.30;;;;;;5031454;28;20028;-72
2024/01/14 08:39:53;;;;;;;65.78;35.10;;;1.70;94.30;;;;;;5032327;28;20021;-74
2024/01/14 08:42:18;;;;;;;74.22;39.08;;;1.70;94.40;;;;;;5029976;28;20594;-73
2024/01/14 08:44:44;;;;;;;81.95;44.30;;;1.70;94.50;;;;;;5028715;28;21068;-73
2024/01/14 08:47:10;;;;;;;67.35;34.20;;;1.80;94.50;;;;;;5034020;28;20025;-72
2024/01/14 08:49:36;;;;;;;65.18;32.92;;;1.70;94.40;;;;;;5032911;28;21011;-72
2024/01/14 08:52:01;;;;;;;62.97;33.08;;;1.80;94.50;;;;;;5035977;28;20017;-72
2024/01/14 08:54:34;;;;;;;67.57;33.80;;;1.80;94.50;;;;;;5030532;28;20033;-73
2024/01/14 08:57:00;;;;;;;64.53;34.72;;;1.80;94.50;;;;;;5037755;28;20026;-74
2024/01/14 08:59:25;;;;;;;64.90;33.08;;;1.80;94.50;;;;;;5033401;28;20048;-74
2024/01/14 09:01:51;;;;;;;66.07;34.30;;;1.80;94.50;;;;;;5031085;28;20478;-72
2024/01/14 09:04:17;;;;;;;63.22;33.75;;;1.80;94.50;;;;;;5032651;28;20135;-73
2024/01/14 09:06:43;;;;;;;63.78;32.85;;;1.90;94.50;;;;;;5034402;28;20041;-72
2024/01/14 09:09:09;;;;;;;65.75;35.08;;;1.90;94.50;;;;;;5031678;28;20046;-73
2024/01/14 09:11:34;;;;;;;76.25;38.72;;;1.90;94.40;;;;;;5031237;28;20036;-73
2024/01/14 09:14:00;;;;;;;74.28;37.83;;;1.90;94.40;;;;;;5034872;28;20044;-72
2024/01/14 09:16:26;;;;;;;85.82;45.05;;;1.90;94.30;;;;;;5032671;28;20116;-73
2024/01/14 09:18:52;;;;;;;72.32;39.58;;;1.90;94.50;;;;;;5034690;28;20179;-72
2024/01/14 09:21:18;;;;;;;75.80;42.47;;;1.90;94.50;;;;;;5035302;28;20021;-72
2024/01/14 09:23:43;;;;;;;75.63;43.63;;;1.90;94.60;;;;;;5031478;28;20052;-73
2024/01/14 09:26:09;;;;;;;73.72;38.30;;;2.00;94.60;;;;;;5032532;28;20033;-72
2024/01/14 09:28:36;;;;;;;80.10;42.92;;;2.00;94.70;;;;;;5033572;28;20068;-73
2024/01/14 09:31:02;;;;;;;71.32;37.80;;;2.10;94.70;;;;;;5034664;28;20048;-73
2024/01/14 09:33:28;;;;;;;78.22;39.67;;;2.00;94.70;;;;;;5029549;28;20079;-72
2024/01/14 09:35:56;;;;;;;74.50;42.88;;;2.00;94.50;;;;;;5029163;28;20128;-72
2024/01/14 09:38:22;;;;;;;96.47;53.70;;;2.00;94.60;;;;;;5030373;28;20386;-72
2024/01/14 09:41:01;;;;;;;77.07;44.47;;;2.00;94.60;;;;;;5034693;28;20038;-74
2024/01/14 09:43:30;;;;;;;78.82;41.75;;;2.20;94.70;;;;;;5030435;28;20041;-74
2024/01/14 09:45:57;;;;;;;72.03;40.53;;;2.10;94.40;;;;;;5031632;28;20120;-74
2024/01/14 09:48:23;;;;;;;70.88;37.92;;;2.20;94.50;;;;;;5030841;28;20474;-74
2024/01/14 09:50:51;;;;;;;80.18;41.45;;;2.10;94.30;;;;;;5031472;28;20425;-74
2024/01/14 09:53:19;;;;;;;72.55;38.47;;;2.10;94.30;;;;;;5033266;28;20045;-74
2024/01/14 09:55:47;;;;;;;67.70;36.55;;;2.10;94.40;;;;;;5033987;28;20124;-74
2024/01/14 09:58:13;;;;;;;70.57;36.25;;;2.10;94.30;;;;;;5033255;28;20038;-73
2024/01/14 10:00:40;;;;;;;69.53;37.42;;;2.10;94.30;;;;;;5034652;28;20081;-74
2024/01/14 10:03:06;;;;;;;69.57;35.78;;;2.10;94.30;;;;;;5027868;28;20367;-73
2024/01/14 10:05:34;;;;;;;69.38;35.85;;;2.00;94.40;;;;;;5023225;28;20025;-75
2024/01/14 10:08:00;;;;;;;69.43;36.28;;;2.10;94.50;;;;;;5030784;28;20490;-73
2024/01/14 10:10:28;;;;;;;71.65;36.75;;;2.00;94.50;;;;;;5035883;28;20024;-73
2024/01/14 10:12:54;;;;;;;68.47;35.45;;;2.10;94.60;;;;;;5033986;28;20473;-74
2024/01/14 10:15:20;;;;;;;67.97;35.83;;;2.10;94.50;;;;;;5033568;28;20025;-73
2024/01/14 10:17:47;;;;;;;71.95;36.80;;;2.10;94.50;;;;;;5033995;28;20113;-74
2024/01/14 10:20:14;;;;;;;65.65;33.22;;;2.10;94.40;;;;;;5033586;28;20041;-73
2024/01/14 10:22:42;;;;;;;66.38;34.75;;;2.10;94.40;;;;;;5035777;28;20036;-74
2024/01/14 10:25:08;;;;;;;69.38;34.85;;;2.10;94.30;;;;;;5037209;28;20550;-74
2024/01/14 10:27:34;;;;;;;68.97;35.05;;;2.10;94.30;;;;;;5030090;28;20021;-74
2024/01/14 10:30:01;;;;;;;63.90;33.75;;;2.10;94.30;;;;;;5029036;28;20100;-72
2024/01/14 10:32:26;;;;;;;70.43;36.05;;;2.10;94.30;;;;;;5033303;28;20137;-73
2024/01/14 10:34:52;;;;;;;66.15;33.80;;;2.10;94.30;;;;;;5034839;28;20033;-72
2024/01/14 10:37:22;;;;;;;65.13;36.08;;;2.10;94.30;;;;;;5034152;28;20084;-73
2024/01/14 10:39:50;;;;;;;69.57;35.05;;;2.10;94.30;;;;;;5025711;28;20189;-73
2024/01/14 10:42:16;;;;;;;68.03;34.72;;;2.10;94.30;;;;;;5033405;28;20052;-72
2024/01/14 10:44:42;;;;;;;71.50;34.72;;;2.10;94.40;;;;;;5029822;28;20501;-73
2024/01/14 10:47:12;;;;;;;68.28;35.92;;;2.10;94.40;;;;;;5031692;28;20682;-73
2024/01/14 10:49:42;;;;;;;65.75;34.30;;;2.10;94.30;;;;;;5031998;28;20584;-72
2024/01/14 10:52:12;;;;;;;60.63;31.77;;;2.10;94.20;;;;;;5034567;28;20025;-73
2024/01/14 10:54:55;;;;;;;63.30;33.17;;;2.10;94.10;;;;;;5029025;28;20456;-73
2024/01/14 10:57:34;;;;;;;64.03;32.33;;;2.10;94.20;;;;;;5030042;28;20025;-73
2024/01/14 11:00:05;;;;;;;63.65;33.38;;;2.00;94.10;;;;;;5036510;28;20287;-73
2024/01/14 11:02:33;;;;;;;61.63;31.73;;;2.10;94.30;;;;;;5029593;28;22072;-73
2024/01/14 11:04:59;;;;;;;63.83;32.33;;;2.10;94.40;;;;;;5032003;28;20021;-73
2024/01/14 11:07:25;;;;;;;66.68;35.50;;;2.10;94.30;;;;;;5030623;28;20075;-72
2024/01/14 11:09:52;;;;;;;66.18;34.03;;;1.90;94.10;;;;;;5031244;28;20083;-73
2024/01/14 11:12:24;;;;;;;63.80;32.63;;;1.90;94.30;;;;;;5030861;28;20025;-73
2024/01/14 11:14:59;;;;;;;62.35;33.33;;;1.90;94.40;;;;;;5031825;28;20025;-73
2024/01/14 11:17:52;;;;;;;77.40;39.47;;;1.90;94.20;;;;;;5030926;28;20043;-73
2024/01/14 11:20:21;;;;;;;77.13;38.80;;;2.00;94.40;;;;;;5029184;28;20428;-72
2024/01/14 11:22:49;;;;;;;90.80;51.00;;;2.00;94.30;;;;;;5031401;28;20125;-73
2024/01/14 11:25:18;;;;;;;81.07;44.58;;;2.00;94.30;;;;;;5029551;28;20061;-74
2024/01/14 11:27:44;;;;;;;69.45;36.92;;;2.00;94.20;;;;;;5030455;28;20143;-72
2024/01/14 11:30:11;;;;;;;84.28;46.47;;;2.00;94.30;;;;;;5026980;28;20470;-72
2024/01/14 11:32:38;;;;;;;73.38;39.40;;;2.10;94.50;;;;;;5032447;28;20025;-72
2024/01/14 11:35:04;;;;;;;70.38;38.47;;;2.10;94.40;;;;;;5044295;28;20049;-73
2024/01/14 11:37:29;;;;;;;71.05;38.55;;;2.00;94.40;;;;;;5049997;28;20512;-72
2024/01/14 11:40:13;;;;;;;67.47;36.60;;;2.10;94.50;;;;;;5051498;28;20461;-72
2024/01/14 11:43:03;;;;;;;64.43;33.85;;;2.10;94.40;;;;;;5031460;28;20025;-72
2024/01/14 11:45:29;;;;;;;66.90;34.78;;;2.10;94.20;;;;;;5035405;28;20017;-72
2024/01/14 11:47:55;;;;;;;73.40;39.30;;;2.10;94.20;;;;;;5039017;28;20143;-72
2024/01/14 11:50:23;;;;;;;74.88;40.33;;;2.10;94.10;;;;;;5045665;28;21136;-72
2024/01/14 11:52:51;;;;;;;73.90;37.53;;;2.20;94.10;;;;;;5050167;28;20052;-72
2024/01/14 11:55:33;;;;;;;69.57;37.67;;;2.10;94.20;;;;;;5037341;28;20021;-73
2024/01/14 11:58:13;;;;;;;78.05;36.80;;;2.20;94.20;;;;;;5026460;28;20469;-73
2024/01/14 12:00:40;;;;;;;70.03;34.92;;;2.20;94.20;;;;;;5039555;28;20044;-73
2024/01/14 12:03:22;;;;;;;69.07;37.20;;;2.20;94.20;;;;;;5026351;28;20369;-73
2024/01/14 12:05:48;;;;;;;70.70;35.80;;;2.10;94.10;;;;;;5040491;28;20453;-73
2024/01/14 12:08:17;;;;;;;72.68;37.45;;;2.20;94.10;;;;;;5049247;28;20025;-73
2024/01/14 12:10:43;;;;;;;71.20;37.70;;;2.20;94.10;;;;;;5048292;28;20017;-72
2024/01/14 12:13:09;;;;;;;72.63;38.00;;;2.20;94.30;;;;;;5047970;28;20353;-73
2024/01/14 12:15:35;;;;;;;69.63;35.65;;;2.20;94.20;;;;;;5037061;28;20099;-72
2024/01/14 12:18:01;;;;;;;65.95;35.58;;;2.20;94.30;;;;;;5049248;28;20029;-73
2024/01/14 12:20:28;;;;;;;70.32;37.83;;;2.30;94.40;;;;;;5038075;28;20530;-73
2024/01/14 12:22:58;;;;;;;73.75;38.28;;;2.20;94.20;;;;;;5048586;28;20106;-73
2024/01/14 12:25:24;;;;;;;67.95;37.67;;;2.30;94.30;;;;;;5047156;28;20409;-73
2024/01/14 12:27:49;;;;;;;73.45;37.95;;;2.30;94.00;;;;;;5035148;28;20106;-74
2024/01/14 12:30:34;;;;;;;66.97;35.70;;;2.20;94.10;;;;;;5061142;28;20024;-73
2024/01/14 12:33:13;;;;;;;70.05;37.00;;;2.20;94.10;;;;;;5050281;28;20041;-73